Portada
METAR-TAF:

METAR-TAF

Aeropuertos :

Aeropuerto Internacional de Volgogrado

Volgogrado, Rusia

latitud: 48-47N, longitud: 044-22E, altitud: 145 m

Observación

El informe se hizo hace 18 minutos, a las 17:00 UTC
Viento 6 kt del norte-noroeste
Temperatura 0°C
Humedad 100%
Presión 1022 hPa
Visibilidad: 7000 m
Cielo cubierto a una altura de 200 ft

METAR: URWW 111700Z 33003MPS 7000 OVC002 M00/M00 Q1022 R06/320053 NOSIG RMK QBB060 OBST OBSC

Hora: 21:18 (17:18 UTC)

Pronóstico

El informe se hizo hace 3 horas y 18 minutos, a las 14:00 UTC
Pronóstico válido del 11 a las 15 UTC al 11 a las 24 UTC
Viento 6 kt del oeste-noroeste
Visibilidad: 0300 m
Cielo cubierto a una altura de 200 ft
niebla engelante
Temporalmente
del 11 a las 15 UTC al 11 a las 24 UTC
Viento 6 kt del norte-noroeste con ráfagas de 16 kt
Visibilidad: 3100 m
(leve) engelante, llovizna, neblina

TAF: URWW 111400Z 1115/1124 30003MPS 0300 FZFG OVC002 TEMPO 1115/1124 33003G08MPS 3100 -FZDZ BR

Observaciones y pronósticos meteorológicos de más de 4000 aeropuertos (mensajes METAR y TAF).

Los puntos amarillos y rojos representan las estaciones disponibles.

Ponga el ratón en el punto deseado para ver el nombre de la estación.

Haga clic para ver las observaciones y los pronósticos meteorológicos.

Para cambiar el mapa : haga clic en los botones verdes con una cruz de color negro para hacer un zoom, en el botón verde con un guión para alejar o en las flechas verdes para mapas adyacentes.


METAR-TAF: